Create Custom Reports and Graphics: Custom Report

Latest Observation

39 Stations

Daily Data | America/Los_Angeles
as of 5/9/21 2:43 PM PDT
Station Date Daily Max Temp (°F) Time of Max Temp Daily Min Temp (°F) Time of Min Temp Daily Rain (In) Monthly Rain (In) Seasonal Rainfall (In) Daily ETo (in) 7 Day ETo (in) Daily Solar Rad (Cal/cm2) Wind Spd (mph) Daily Max Wind (mph) Time of Max Wind Max Wind Dir (°) Dew Pt (°F) Max RH (%) Min RH (%) Hrs 70-85F (hrs) Hrs > 95F (hrs) Powdery Mildew Stress (pts) Hrs <= 32F (hrs) Hrs <= 28F (hrs) GDDs (DL) Seas GDDs (DL) Chilling <=45F (hrs) Chilling <=45F Seas (hrs) Daily Leaf Wet Hrs (hrs) Daily Max CanT (°F) Daily Min CanT (°F) Bat Volt Min Day (V)
Colony 1 5/8/21 87.4 1616 49.5 0122 0.00 0.00 8.15 0.323 1.83 733 7.2 26.7 1004 NW | 323 32.6 82 10 5.18 0.00 90 0.0 0.0 20.7 482 0.0 - - - - 12.8
Colony 2 5/8/21 87.7 1700 51.2 0153 0.00 0.00 7.64 0.303 1.77 699 6.6 24.1 1040 NNW | 346 33.5 77 11 4.55 0.00 0 0.0 0.0 20.7 480 0.0 - - - - 12.7
5 Wells 5/8/21 86.4 1626 49.0 0240 0.00 0.00 8.22 0.301 1.81 702 7.0 25.8 1246 NNW | 341 33.4 81 10 4.68 0.00 90 0.0 0.0 18.6 469 0.0 - - - - 12.5
Simmerhorn 5/8/21 86.2 1546 49.0 0234 - - - - - - - - - - 32.2 78 11 5.22 0.00 90 0.0 0.0 18.7 459 0.0 - - - - 12.4
Galt-East 5/8/21 86.0 1458 49.0 0325 0.00 0.00 7.21 0.271 1.64 653 5.4 20.4 1358 NNW | 339 35.1 79 12 5.01 0.00 70 0.0 0.0 18.3 459 0.0 - - - - 12.5
Borden Hills 5/8/21 88.2 1630 51.2 0455 0.00 0.00 8.50 0.285 1.74 674 6.1 22.8 1623 NW | 306 39.6 84 15 4.43 0.00 80 0.0 0.0 20.7 524 0.0 - - - - 12.5
Sierra Loma-L27 5/8/21 88.1 1644 49.1 0315 0.00 0.00 9.16 - - - 6.8 23.3 1251 WSW | 254 37.0 85 14 4.54 0.00 70 0.0 0.0 20.2 497 0.0 - - - - 12.6
Lockeford 5/8/21 86.0 1606 47.5 0213 0.00 0.00 9.48 0.267 1.63 617 5.4 21.2 1652 NW | 322 32.3 80 11 4.50 0.00 90 0.0 0.0 19.0 457 0.0 - 0.0 87.2 47.9 12.0
Lone Oak-L28 5/8/21 85.6 1532 41.0 0615 0.00 0.00 9.54 - - - 5.0 20.2 1709 NW | 320 40.5 96 15 9.33 0.00 60 0.0 0.0 14.7 423 4.3 - - - - 12.6
Kost Rd 5/8/21 88.5 1608 57.3 0101 0.00 0.00 6.00 0.275 1.71 632 6.1 23.0 1049 NNW | 327 34.8 59 13 4.91 0.00 70 0.0 0.0 22.6 482 0.0 - - - - 12.5
Thornton 5/8/21 86.8 1610 56.0 0101 0.00 0.00 5.17 0.233 1.10 143 8.9 25.9 1032 N | 0 31.3 56 10 5.40 0.00 90 0.0 0.0 21.7 494 0.0 - 0.0 - - 12.5
Lodi (LangeTwins) 5/8/21 88.4 1703 58.8 0632 0.00 0.00 7.42 0.315 1.80 676 8.3 24.6 1022 SE | 136 34.4 50 12 4.49 0.00 40 0.0 0.0 22.3 487 0.0 - 0.0 - - 12.5
Gilbeau Ranch 5/8/21 87.2 1601 50.9 0201 0.00 0.00 8.88 0.258 1.60 651 4.0 18.5 1519 NW | 324 30.5 77 9 4.60 0.00 40 0.0 0.0 20.3 471 0.0 - - - - 10.2
Galt West 5/8/21 87.8 1555 55.4 0101 0.00 0.00 6.99 0.310 1.75 670 8.0 23.9 1021 N | 354 34.7 60 13 5.05 0.00 70 0.0 0.0 21.8 479 0.0 - - - - 12.6
Valley Oak 5/8/21 87.5 1604 58.7 0619 0.00 0.00 5.87 0.292 1.71 644 6.8 21.7 1046 NW | 322 29.9 43 9 5.21 0.00 70 0.0 0.0 21.6 480 0.0 - - - - 12.1
Guard Rd (Lodi WSW) 5/8/21 87.0 1653 56.7 0154 0.00 0.00 6.35 0.291 1.79 701 6.4 24.4 1100 NNW | 339 34.2 58 11 4.92 0.00 0 0.0 0.0 21.1 464 0.0 - 0.0 88.6 55.8 12.3
Linden 5/8/21 86.2 1714 44.0 0608 0.00 0.00 8.99 - - - 3.5 18.5 1321 NNW | 334 39.9 97 13 6.18 0.00 100 0.0 0.0 16.1 452 0.7 - 12.3 - - 12.7
DeVries Road-North 5/8/21 87.0 1620 54.1 0059 0.00 0.00 6.04 0.268 1.64 636 6.0 20.3 1225 NW | 317 35.8 63 14 5.68 0.00 70 0.0 0.0 20.6 462 0.0 - - - - 12.6
Acampo 5/8/21 86.5 1631 58.0 0101 0.00 0.00 7.69 0.282 1.76 681 5.6 22.2 1450 NW | 324 29.6 51 9 5.31 0.00 90 0.0 0.0 21.1 485 0.0 - 0.0 - - 11.4
Acampo (Woodbridge) 5/8/21 88.0 1641 55.3 0531 0.00 0.00 7.05 0.321 1.93 687 8.0 25.2 1530 NW | 312 31.1 57 10 4.68 0.00 70 0.0 0.0 21.1 484 0.0 - - - - 12.4
Lodi West 5/8/21 87.6 1552 56.3 0130 0.00 0.00 6.54 0.258 1.62 630 4.3 23.7 1136 WNW | 292 30.8 55 9 4.67 0.07 40 0.0 0.0 21.3 482 0.0 - 24.0 - - 12.4
Teresi-Alpine Rd (East Lodi) 5/8/21 88.3 1658 53.8 0633 0.00 0.00 7.80 0.271 1.59 439 7.1 23.2 1232 N | 0 31.4 51 10 4.43 0.00 80 0.0 0.0 21.7 - 0.0 1,318 - - - 12.7
Victor - N (Katusha) 5/8/21 86.2 1649 52.4 0109 0.00 - 6.33 - - - 5.0 19.9 1807 N | 6 30.7 68 10 5.82 0.00 90 0.0 0.0 20.0 - 0.0 - - - - 12.4
Live Oak 5/8/21 87.4 1718 54.1 0241 0.00 0.00 7.66 0.262 1.68 657 4.7 20.5 1545 WNW | 291 33.1 63 11 4.89 0.00 70 0.0 0.0 20.6 488 0.0 - - - - 12.6
Sheldon 5/8/21 86.7 1438 48.8 0155 0.00 0.00 8.55 0.321 1.80 696 7.8 24.6 1136 NNE | 17 31.8 85 11 4.84 0.00 50 0.0 0.0 21.6 470 0.0 - 0.0 - - 12.7
Sloughhouse 5/8/21 87.6 1542 41.0 0406 0.00 0.00 9.23 0.284 1.64 632 5.8 25.2 1416 NW | 316 32.9 95 10 4.82 0.00 80 0.0 0.0 18.0 465 2.6 - - - - 12.4
Utter - Wilson 5/8/21 87.8 1723 60.2 0624 0.00 0.00 6.53 0.352 1.88 678 11.8 33.9 0753 NNW | 339 35.2 35 14 6.49 0.00 100 0.0 0.0 23.4 495 0.0 - - - - 12.7
Clarksburg 5/8/21 87.3 1657 61.3 0634 0.00 0.00 6.05 0.332 1.91 732 8.3 31.7 0732 N | 351 27.3 32 8 4.97 0.00 70 0.0 0.0 23.6 490 0.0 - - - - 12.5
Clarksburg-3A2 5/8/21 86.6 1604 58.0 0101 0.00 0.00 7.08 0.382 1.93 656 14.4 35.1 0720 NNW | 341 31.4 40 10 5.12 0.00 90 0.0 0.0 22.1 457 0.0 - - - - 12.7
Gorter - Wilson 5/8/21 88.1 1623 58.9 0611 0.00 0.00 6.93 0.300 1.65 562 9.2 28.2 0743 E | 91 36.1 41 14 4.72 0.00 70 0.0 0.0 22.6 486 0.0 - - - - 12.5
Hood 5/8/21 86.6 1642 60.0 0622 0.00 0.00 6.68 0.278 1.65 651 6.4 26.3 0908 NNW | 330 33.6 39 13 6.68 0.00 100 0.0 0.0 22.7 469 0.0 - - - - 12.5
Courtland-C3 5/8/21 87.3 1622 59.5 0101 0.00 0.00 5.73 - - - 12.1 32.4 1021 N | 352 33.7 39 13 4.96 0.00 70 0.0 0.0 22.1 468 0.0 - - - - 12.6
Pacific Fruit 5/8/21 87.7 1607 60.9 0101 0.00 0.00 6.51 0.261 1.64 644 5.1 23.1 1122 N | 6 34.5 39 13 6.03 0.00 100 0.0 0.0 24.0 488 0.0 - - - - 12.5
Ryer Island South 5/8/21 86.9 1615 60.6 0149 0.00 0.00 6.79 0.318 1.83 684 8.4 29.9 1010 N | 353 32.5 41 11 5.82 0.00 100 0.0 0.0 23.3 510 0.0 - 0.0 - - 12.3
Farmington (Mobley100) 5/8/21 84.2 1558 47.1 0615 - - - - - - 1.4 11.6 1751 WNW | 285 40.7 93 14 9.36 0.00 100 0.0 0.0 15.8 434 0.0 - - - - 12.5
Collegeville 5/8/21 86.0 1718 47.5 0220 0.00 0.00 8.57 0.239 1.56 669 3.7 17.0 1309 NNW | 332 37.8 94 11 6.07 0.00 100 0.0 0.0 18.7 462 0.0 - - - - 12.6
Oakdale North (28 Mile Rd) 5/8/21 83.6 1622 51.5 0454 - - - - - - 1.3 11.5 1334 NW | 309 39.2 81 13 9.49 0.00 100 0.0 0.0 16.1 435 0.0 - - - - 12.8
Escalon 5/8/21 86.5 1717 52.4 0116 0.00 0.00 8.08 - - - 4.5 17.5 1417 W | 265 37.1 81 13 5.73 0.00 90 0.0 0.0 20.3 498 0.0 - 0.0 - - 12.5
Claussen 5/8/21 86.5 1650 58.7 0429 0.00 0.00 7.06 0.294 1.85 709 7.2 25.5 1305 N | 3 39.2 66 15 5.96 0.00 90 0.0 0.0 21.2 499 0.0 - - - - 12.6
Max   88.5 - 61.3 - 0.00 0.00 - 0.382 - 733 14.4 35.1 - - 40.7 97 15 9.49 0.07 - 0.0 0.0 24.0 - 4.3 - 24.0 88.6 55.8 12.8
Avg   - - - - - 0.00 - - - - 6.6 - - - 34.1 - - 5.51 0.00 - 0.0 0.0 20.5 - 0.2 - - - - -
Min   83.6 - 41.0 - 0.00 0.00 - 0.233 - 143 1.3 11.5 - - 27.3 32 8 4.43 0.00 - 0.0 0.0 14.7 - 0.0 - 0.0 87.2 47.9 10.2